Terminal Aerodrome Forecast
Issued by NWS Cleveland, OH

Home | Current Version | Previous Version | Graphics & Text | Print | Product List | Glossary On
Versions: 1 2 3 4 5 6 7 8 9 10 11 12 13 14 15 16 17 18 19 20 21 22 23 24 25
509
FTUS41 KCLE 270159 AAA
TAFTOL
TAF AMD
KTOL 270159Z 2702/2724 14006KT 6SM -SHRA BKN045 OVC100
      TEMPO 2702/2704 4SM -SHRA BR OVC025
     FM270400 23005KT 5SM BR SCT008 BKN120
     FM270700 24005KT 5SM BR OVC008
     FM271500 24008KT P6SM BKN025
     FM271900 23006KT P6SM BKN050 OVC100=

USA.gov is the U.S. government's official web portal to all federal, state and local government web resources and services.